Time;durP1;ratioP1;P1;durP2;ratioP2;P2;SDS_P1;SDS_P2;PMS_P1;PMS_P2;Temp;Humidity;BMP_temperature;BMP_pressure;BME280_temperature;BME280_humidity;BME280_pressure;Samples;Min_cycle;Max_cycle;Signal;HPM_P1;HPM_P2
2024/01/28 00:01:26;;;;;;;;;;;3.00;99.90;;;;;;7352187;19;111649;-95
2024/01/28 00:03:53;;;;;;;;;;;2.90;99.90;;;;;;7358958;19;108879;-95
2024/01/28 00:06:21;;;;;;;;;;;2.90;99.90;;;;;;7353224;19;109073;-95
2024/01/28 00:08:48;;;;;;;;;;;2.90;99.90;;;;;;7350107;19;108502;-94
2024/01/28 00:11:15;;;;;;;;;;;2.90;99.90;;;;;;7351432;19;111992;-94
2024/01/28 00:13:43;;;;;;;;;;;3.00;99.90;;;;;;7349242;19;111506;-94
2024/01/28 00:16:14;;;;;;;;;;;2.90;99.90;;;;;;7352231;19;109306;-95
2024/01/28 00:18:41;;;;;;;;;;;2.90;99.90;;;;;;7352927;19;109339;-95
2024/01/28 00:21:09;;;;;;;;;;;2.90;99.90;;;;;;7350413;19;111035;-95
2024/01/28 00:23:36;;;;;;;;;;;2.90;99.90;;;;;;7352145;19;108569;-95
2024/01/28 00:26:04;;;;;;;;;;;2.90;99.90;;;;;;7376304;19;109606;-96
2024/01/28 00:28:31;;;;;;;;;;;2.90;99.90;;;;;;7374721;19;109052;-95
2024/01/28 00:30:58;;;;;;;;;;;2.90;99.90;;;;;;7373678;19;109553;-95
2024/01/28 00:33:25;;;;;;;;;;;2.90;99.90;;;;;;7374390;19;111472;-96
2024/01/28 00:35:54;;;;;;;;;;;2.90;99.90;;;;;;7374900;19;107764;-96
2024/01/28 00:38:23;;;;;;;;;;;2.90;99.90;;;;;;7372026;19;110679;-95
2024/01/28 00:40:50;;;;;;;;;;;2.90;99.90;;;;;;7372403;19;109090;-95
2024/01/28 00:43:18;;;;;;;;;;;2.90;99.90;;;;;;7375136;19;107908;-96
2024/01/28 00:45:45;;;;;;;;;;;2.90;99.90;;;;;;7373592;19;109133;-96
2024/01/28 00:48:13;;;;;;;;;;;2.90;99.90;;;;;;7377544;19;110863;-94
2024/01/28 00:50:40;;;;;;;;;;;2.90;99.90;;;;;;7368102;19;110561;-95
2024/01/28 00:53:08;;;;;;;;;;;2.90;99.90;;;;;;7353380;19;111425;-95
2024/01/28 00:55:35;;;;;;;;;;;2.90;99.90;;;;;;7349515;19;108430;-95
2024/01/28 00:58:02;;;;;;;;;;;2.90;99.90;;;;;;7343340;19;110201;-94
2024/01/28 01:00:30;;;;;;;;;;;3.00;99.90;;;;;;7345881;19;113232;-95
2024/01/28 01:02:58;;;;;;;;;;;3.00;99.90;;;;;;7349424;19;108472;-94
2024/01/28 01:05:25;;;;;;;;;;;2.90;99.90;;;;;;7345966;19;108541;-94
2024/01/28 01:07:52;;;;;;;;;;;2.90;99.90;;;;;;7347879;19;109325;-95
2024/01/28 01:10:25;;;;;;;;;;;2.90;99.90;;;;;;7350681;19;108123;-94
2024/01/28 01:12:52;;;;;;;;;;;2.90;99.90;;;;;;7348102;19;109875;-94
2024/01/28 01:15:20;;;;;;;;;;;2.90;99.90;;;;;;7343954;19;108328;-95
2024/01/28 01:17:49;;;;;;;;;;;2.80;99.90;;;;;;7343574;19;110655;-94
2024/01/28 01:20:19;;;;;;;;;;;2.80;99.90;;;;;;7349903;19;109334;-95
2024/01/28 01:22:46;;;;;;;;;;;2.80;99.90;;;;;;7346649;19;112669;-94
2024/01/28 01:25:14;;;;;;;;;;;2.70;99.90;;;;;;7345513;19;109384;-95
2024/01/28 01:27:42;;;;;;;;;;;2.70;99.90;;;;;;7342799;19;110678;-95
2024/01/28 01:30:10;;;;;;;;;;;2.70;99.90;;;;;;7344576;19;108451;-95
2024/01/28 01:32:40;;;;;;;;;;;2.70;99.90;;;;;;7347499;19;111256;-95
2024/01/28 01:35:08;;;;;;;;;;;2.60;99.90;;;;;;7341658;19;109533;-96
2024/01/28 01:37:36;;;;;;;;;;;2.60;99.90;;;;;;7342385;19;108136;-96
2024/01/28 01:40:04;;;;;;;;;;;2.60;99.90;;;;;;7342559;19;111335;-96
2024/01/28 01:42:31;;;;;;;;;;;2.60;99.90;;;;;;7341655;19;108546;-95
2024/01/28 01:44:58;;;;;;;;;;;2.60;99.90;;;;;;7350603;19;112167;-94
2024/01/28 01:47:26;;;;;;;;;;;2.60;99.90;;;;;;7350030;19;111421;-96
2024/01/28 01:49:54;;;;;;;;;;;2.60;99.90;;;;;;7349949;19;108303;-95
2024/01/28 01:52:21;;;;;;;;;;;2.60;99.90;;;;;;7354295;19;109374;-95
2024/01/28 01:54:51;;;;;;;;;;;2.60;99.90;;;;;;7348528;19;108686;-94
2024/01/28 01:57:18;;;;;;;;;;;2.60;99.90;;;;;;7350455;19;111938;-94
2024/01/28 01:59:46;;;;;;;;;;;2.50;99.90;;;;;;7346990;19;112856;-95
2024/01/28 02:02:13;;;;;;;;;;;2.50;99.90;;;;;;7349592;19;108531;-96
2024/01/28 02:04:41;;;;;;;;;;;2.60;99.90;;;;;;7348236;19;109321;-95
2024/01/28 02:07:08;;;;;;;;;;;2.60;99.90;;;;;;7347456;19;110194;-94
2024/01/28 02:09:35;;;;;;;;;;;2.50;99.90;;;;;;7349797;19;108394;-95
2024/01/28 02:12:03;;;;;;;;;;;2.50;99.90;;;;;;7347844;19;111847;-95
2024/01/28 02:14:31;;;;;;;;;;;2.50;99.90;;;;;;7352406;19;113061;-95
2024/01/28 02:16:59;;;;;;;;;;;2.50;99.90;;;;;;7346600;19;108150;-96
2024/01/28 02:19:27;;;;;;;;;;;2.50;99.90;;;;;;7349037;19;111699;-95
2024/01/28 02:21:54;;;;;;;;;;;2.50;99.90;;;;;;7348860;19;108148;-96
2024/01/28 02:24:22;;;;;;;;;;;2.50;99.90;;;;;;7348396;19;111798;-95
2024/01/28 02:26:49;;;;;;;;;;;2.50;99.90;;;;;;7347021;19;109838;-96
2024/01/28 02:29:16;;;;;;;;;;;2.50;99.90;;;;;;7347555;19;108343;-96
2024/01/28 02:31:47;;;;;;;;;;;2.50;99.90;;;;;;7346761;19;112404;-95
2024/01/28 02:34:17;;;;;;;;;;;2.40;99.90;;;;;;7347049;19;111510;-94
2024/01/28 02:36:45;;;;;;;;;;;2.40;99.90;;;;;;7351704;19;108594;-94
2024/01/28 02:39:12;;;;;;;;;;;2.40;99.90;;;;;;7346950;19;111606;-94
2024/01/28 02:41:41;;;;;;;;;;;2.40;99.90;;;;;;7346368;19;109030;-95
2024/01/28 02:44:13;;;;;;;;;;;2.40;99.90;;;;;;7346916;19;111051;-94
2024/01/28 02:46:41;;;;;;;;;;;2.40;99.90;;;;;;7346701;19;111784;-95
2024/01/28 02:49:11;;;;;;;;;;;2.40;99.90;;;;;;7347157;19;109327;-95
2024/01/28 02:51:38;;;;;;;;;;;2.40;99.90;;;;;;7346625;19;111451;-94
2024/01/28 02:54:06;;;;;;;;;;;2.40;99.90;;;;;;7344900;19;111426;-95
2024/01/28 02:56:33;;;;;;;;;;;2.40;99.90;;;;;;7344853;19;108421;-95
2024/01/28 02:59:01;;;;;;;;;;;2.40;99.90;;;;;;7351493;19;109156;-94
2024/01/28 03:01:29;;;;;;;;;;;2.40;99.90;;;;;;7349491;19;108008;-94
2024/01/28 03:03:56;;;;;;;;;;;2.40;99.90;;;;;;7346919;19;112087;-93
2024/01/28 03:06:23;;;;;;;;;;;2.40;99.90;;;;;;7349820;19;109947;-93
2024/01/28 03:08:50;;;;;;;;;;;2.40;99.90;;;;;;7346059;19;108470;-94
2024/01/28 03:11:18;;;;;;;;;;;2.40;99.90;;;;;;7347977;19;108934;-93
2024/01/28 03:13:45;;;;;;;;;;;2.50;99.90;;;;;;7345277;19;108677;-94
2024/01/28 03:16:12;;;;;;;;;;;2.50;99.90;;;;;;7346928;19;108661;-94
2024/01/28 03:18:39;;;;;;;;;;;2.50;99.90;;;;;;7344953;19;108322;-93
2024/01/28 03:21:07;;;;;;;;;;;2.50;99.90;;;;;;7350876;19;114871;-94
2024/01/28 03:23:34;;;;;;;;;;;2.50;99.90;;;;;;7349441;19;108840;-93
2024/01/28 03:26:02;;;;;;;;;;;2.50;99.90;;;;;;7345144;19;112942;-94
2024/01/28 03:28:29;;;;;;;;;;;2.50;99.90;;;;;;7346771;19;108365;-95
2024/01/28 03:30:57;;;;;;;;;;;2.60;99.90;;;;;;7347770;19;111706;-95
2024/01/28 03:33:24;;;;;;;;;;;2.50;99.90;;;;;;7346197;19;110284;-95
2024/01/28 03:35:51;;;;;;;;;;;2.50;99.90;;;;;;7345407;19;108475;-93
2024/01/28 03:38:18;;;;;;;;;;;2.50;99.90;;;;;;7344923;19;111666;-94
2024/01/28 03:40:46;;;;;;;;;;;2.50;99.90;;;;;;7344762;19;111411;-93
2024/01/28 03:43:13;;;;;;;;;;;2.50;99.90;;;;;;7351024;19;108137;-93
2024/01/28 03:45:40;;;;;;;;;;;2.50;99.90;;;;;;7346790;19;111727;-94
2024/01/28 03:48:08;;;;;;;;;;;2.50;99.90;;;;;;7350806;19;108414;-94
2024/01/28 03:50:36;;;;;;;;;;;2.60;99.90;;;;;;7354804;19;108840;-96
2024/01/28 03:53:04;;;;;;;;;;;2.50;99.90;;;;;;7346822;19;110333;-93
2024/01/28 03:55:32;;;;;;;;;;;2.50;99.90;;;;;;7343103;19;108620;-95
2024/01/28 03:57:58;;;;;;;;;;;2.50;99.90;;;;;;7346811;19;111100;-96
2024/01/28 04:00:28;;;;;;;;;;;2.50;99.90;;;;;;7371495;19;111899;-93
2024/01/28 04:02:56;;;;;;;;;;;2.50;99.90;;;;;;7381529;19;108183;-94
2024/01/28 04:05:24;;;;;;;;;;;2.50;99.90;;;;;;7374911;19;108786;-93
2024/01/28 04:07:51;;;;;;;;;;;2.50;99.90;;;;;;7373229;19;108319;-94
2024/01/28 04:10:18;;;;;;;;;;;2.40;99.90;;;;;;7375910;19;109522;-93
2024/01/28 04:12:51;;;;;;;;;;;2.40;99.90;;;;;;7372711;19;111404;-94
2024/01/28 04:26:08;;;;;;;;;;;2.30;99.90;;;;;;7301247;19;102464;-93
2024/01/28 04:28:35;;;;;;;;;;;2.20;99.90;;;;;;7342139;19;108769;-93
2024/01/28 04:31:13;;;;;;;;;;;2.20;99.90;;;;;;7342542;19;111989;-93
2024/01/28 04:33:41;;;;;;;;;;;2.20;99.90;;;;;;7346894;19;110339;-94
2024/01/28 04:36:09;;;;;;;;;;;2.20;99.90;;;;;;7340464;19;108412;-94
2024/01/28 04:38:36;;;;;;;;;;;2.20;99.90;;;;;;7345142;19;111606;-94
2024/01/28 04:41:04;;;;;;;;;;;2.10;99.90;;;;;;7339294;19;111215;-93
2024/01/28 04:43:31;;;;;;;;;;;2.10;99.90;;;;;;7343622;19;108917;-94
2024/01/28 04:45:58;;;;;;;;;;;2.10;99.90;;;;;;7340309;19;110766;-93
2024/01/28 04:48:32;;;;;;;;;;;2.10;99.90;;;;;;7350251;19;108740;-96
2024/01/28 04:51:03;;;;;;;;;;;2.10;99.90;;;;;;7344246;19;108555;-95
2024/01/28 04:53:30;;;;;;;;;;;2.10;99.90;;;;;;7349934;19;109294;-95
2024/01/28 04:55:58;;;;;;;;;;;2.10;99.90;;;;;;7349957;19;108317;-96
2024/01/28 04:58:25;;;;;;;;;;;2.10;99.90;;;;;;7345949;19;110039;-94
2024/01/28 05:00:54;;;;;;;;;;;2.10;99.90;;;;;;7346056;19;109597;-95
2024/01/28 05:03:24;;;;;;;;;;;2.00;99.90;;;;;;7343507;19;108320;-94
2024/01/28 05:05:52;;;;;;;;;;;2.00;99.90;;;;;;7346439;19;109967;-95
2024/01/28 05:08:20;;;;;;;;;;;2.10;99.90;;;;;;7343913;19;110963;-95
2024/01/28 05:10:48;;;;;;;;;;;2.00;99.90;;;;;;7351955;19;110601;-95
2024/01/28 05:13:15;;;;;;;;;;;2.00;99.90;;;;;;7347710;19;109220;-94
2024/01/28 05:15:43;;;;;;;;;;;2.00;99.90;;;;;;7346730;19;108312;-95
2024/01/28 05:18:23;;;;;;;;;;;2.00;99.90;;;;;;7346870;19;108258;-95
2024/01/28 05:20:51;;;;;;;;;;;2.00;99.90;;;;;;7352469;19;110349;-95
2024/01/28 05:23:19;;;;;;;;;;;2.00;99.90;;;;;;7351695;19;108094;-94
2024/01/28 05:25:46;;;;;;;;;;;2.10;99.90;;;;;;7354426;19;110460;-96
2024/01/28 05:28:14;;;;;;;;;;;2.10;99.90;;;;;;7356211;19;110835;-96
2024/01/28 05:30:46;;;;;;;;;;;2.10;99.90;;;;;;7361848;19;107851;-96
2024/01/28 05:33:17;;;;;;;;;;;2.10;99.90;;;;;;7362341;19;110951;-95
2024/01/28 05:35:47;;;;;;;;;;;2.10;99.90;;;;;;7355243;19;108984;-96
2024/01/28 06:07:50;;;;;;;;;;;2.20;99.90;;;;;;7351309;19;107717;-96
2024/01/28 06:10:17;;;;;;;;;;;2.20;99.90;;;;;;7351999;19;110042;-95
2024/01/28 06:12:44;;;;;;;;;;;2.20;99.90;;;;;;7347625;19;108150;-95
2024/01/28 06:15:13;;;;;;;;;;;2.20;99.90;;;;;;7351127;19;112577;-96
2024/01/28 06:17:41;;;;;;;;;;;2.20;99.90;;;;;;7356097;19;108350;-95
2024/01/28 06:20:08;;;;;;;;;;;2.20;99.90;;;;;;7350688;19;109647;-96
2024/01/28 06:22:36;;;;;;;;;;;2.20;99.90;;;;;;7351538;19;111435;-95
2024/01/28 06:25:05;;;;;;;;;;;2.20;99.90;;;;;;7349334;19;108337;-96
2024/01/28 06:27:32;;;;;;;;;;;2.20;99.90;;;;;;7351114;19;110787;-95
2024/01/28 06:30:00;;;;;;;;;;;2.20;99.90;;;;;;7349024;19;111090;-94
2024/01/28 06:32:27;;;;;;;;;;;2.10;99.90;;;;;;7349755;19;108326;-94
2024/01/28 06:34:55;;;;;;;;;;;2.10;99.90;;;;;;7354634;19;109271;-95
2024/01/28 06:37:23;;;;;;;;;;;2.10;99.90;;;;;;7348262;19;111477;-96
2024/01/28 06:39:51;;;;;;;;;;;2.10;99.90;;;;;;7356414;19;107653;-96
2024/01/28 06:42:25;;;;;;;;;;;2.10;99.90;;;;;;7353602;19;111016;-94
2024/01/28 06:44:57;;;;;;;;;;;2.10;99.90;;;;;;7350530;19;108247;-95
2024/01/28 06:47:24;;;;;;;;;;;2.10;99.90;;;;;;7350355;19;109127;-95
2024/01/28 06:49:51;;;;;;;;;;;2.10;99.90;;;;;;7352532;19;113209;-95
2024/01/28 06:52:19;;;;;;;;;;;2.10;99.90;;;;;;7350111;19;107678;-96
2024/01/28 06:54:46;;;;;;;;;;;2.10;99.90;;;;;;7348343;19;110540;-96
2024/01/28 06:57:14;;;;;;;;;;;2.10;99.90;;;;;;7347303;19;109830;-96
2024/01/28 06:59:43;;;;;;;;;;;2.00;99.90;;;;;;7362886;19;108054;-95
2024/01/28 07:02:11;;;;;;;;;;;2.00;99.90;;;;;;7354822;19;108201;-95
2024/01/28 07:04:41;;;;;;;;;;;2.00;99.90;;;;;;7350546;19;108165;-96
2024/01/28 07:07:11;;;;;;;;;;;2.00;99.90;;;;;;7351040;19;110848;-96
2024/01/28 07:09:39;;;;;;;;;;;2.00;99.90;;;;;;7349356;19;110390;-95
2024/01/28 07:12:08;;;;;;;;;;;2.00;99.90;;;;;;7360440;19;107802;-95
2024/01/28 07:14:47;;;;;;;;;;;2.00;99.90;;;;;;7357655;19;110510;-95
2024/01/28 07:17:15;;;;;;;;;;;2.00;99.90;;;;;;7358492;19;112642;-94
2024/01/28 07:19:45;;;;;;;;;;;2.00;99.90;;;;;;7346754;19;108727;-93
2024/01/28 07:22:12;;;;;;;;;;;2.00;99.90;;;;;;7364744;19;108982;-93
2024/01/28 09:24:33;;;;;;;;;;;4.50;99.90;;;;;;7338687;19;108423;-89
2024/01/28 09:27:01;;;;;;;;;;;4.60;99.90;;;;;;7335833;19;112678;-90
2024/01/28 09:29:30;;;;;;;;;;;4.60;99.90;;;;;;7340754;19;109028;-89
2024/01/28 09:31:59;;;;;;;;;;;4.70;99.90;;;;;;7335607;19;110522;-91
2024/01/28 09:34:28;;;;;;;;;;;4.80;99.90;;;;;;7338446;19;108960;-89
2024/01/28 09:36:55;;;;;;;;;;;4.90;99.90;;;;;;7333859;19;112235;-88
2024/01/28 09:39:23;;;;;;;;;;;5.00;99.90;;;;;;7336722;19;110664;-89
2024/01/28 09:42:06;;;;;;;;;;;5.10;99.90;;;;;;7333255;19;108731;-88
2024/01/28 09:44:35;;;;;;;;;;;5.30;99.90;;;;;;7333172;19;112553;-88
2024/01/28 09:47:03;;;;;;;;;;;5.40;99.90;;;;;;7334129;19;112257;-88
2024/01/28 09:49:39;;;;;;;;;;;5.40;99.90;;;;;;7334570;19;109830;-88
2024/01/28 09:52:13;;;;;;;;;;;5.50;99.90;;;;;;7335821;19;113076;-88
2024/01/28 09:54:49;;;;;;;;;;;5.60;99.90;;;;;;7332317;19;109206;-86
2024/01/28 09:57:40;;;;;;;;;;;5.70;99.90;;;;;;7327218;19;109247;-87
2024/01/28 10:00:08;;;;;;;;;;;5.90;99.90;;;;;;7334128;19;113640;-87
2024/01/28 10:02:35;;;;;;;;;;;6.00;99.90;;;;;;7330546;19;108788;-87
2024/01/28 10:05:09;;;;;;;;;;;6.10;99.90;;;;;;7335909;19;109237;-87
2024/01/28 10:07:47;;;;;;;;;;;6.20;99.90;;;;;;7338751;19;110308;-87
2024/01/28 10:10:16;;;;;;;;;;;6.30;99.90;;;;;;7340919;19;108832;-86
2024/01/28 10:12:50;;;;;;;;;;;6.40;99.90;;;;;;7340235;19;109592;-86
2024/01/28 10:15:17;;;;;;;;;;;6.50;99.90;;;;;;7341786;19;110221;-88
2024/01/28 10:17:48;;;;;;;;;;;6.60;99.90;;;;;;7341085;19;108874;-89
2024/01/28 10:20:17;;;;;;;;;;;6.70;99.90;;;;;;7339500;19;112674;-88
2024/01/28 10:22:44;;;;;;;;;;;6.80;99.90;;;;;;7342715;19;108379;-87
2024/01/28 10:25:15;;;;;;;;;;;6.90;99.90;;;;;;7341960;19;111271;-88
2024/01/28 10:27:42;;;;;;;;;;;6.90;99.90;;;;;;7344746;19;110435;-88
2024/01/28 10:30:11;;;;;;;;;;;7.00;99.90;;;;;;7341441;19;108410;-88
2024/01/28 10:32:38;;;;;;;;;;;7.10;99.90;;;;;;7346029;19;108408;-88
2024/01/28 10:35:07;;;;;;;;;;;7.20;99.90;;;;;;7351284;19;109432;-88
2024/01/28 10:37:34;;;;;;;;;;;7.30;99.90;;;;;;7347030;19;108482;-89
2024/01/28 10:40:11;;;;;;;;;;;7.40;99.90;;;;;;7346260;19;112689;-89
2024/01/28 10:43:03;;;;;;;;;;;7.50;99.90;;;;;;7341199;19;108472;-90
2024/01/28 10:45:31;;;;;;;;;;;7.60;99.90;;;;;;7357927;19;110745;-89
2024/01/28 10:48:03;;;;;;;;;;;7.70;99.90;;;;;;7372659;19;109210;-89
2024/01/28 10:50:31;;;;;;;;;;;7.80;99.90;;;;;;7372229;19;108274;-88
2024/01/28 10:52:59;;;;;;;;;;;7.90;99.90;;;;;;7372947;19;107783;-89
2024/01/28 10:55:30;;;;;;;;;;;7.90;99.90;;;;;;7370303;19;110044;-89
2024/01/28 10:57:59;;;;;;;;;;;7.90;99.90;;;;;;7377669;19;107971;-88
2024/01/28 11:00:28;;;;;;;;;;;8.00;99.90;;;;;;7372810;19;108950;-88
2024/01/28 11:02:59;;;;;;;;;;;8.00;99.90;;;;;;7370431;19;108073;-88
2024/01/28 11:05:27;;;;;;;;;;;8.00;99.90;;;;;;7373123;19;108187;-88
2024/01/28 11:07:59;;;;;;;;;;;8.10;99.90;;;;;;7371623;19;108796;-88
2024/01/28 11:10:30;;;;;;;;;;;8.20;99.90;;;;;;7359715;19;108621;-89
2024/01/28 11:12:57;;;;;;;;;;;8.20;99.90;;;;;;7338470;19;108838;-89
2024/01/28 11:15:26;;;;;;;;;;;8.40;99.90;;;;;;7337352;19;113160;-88
2024/01/28 11:17:54;;;;;;;;;;;8.50;99.90;;;;;;7337306;19;109437;-89
2024/01/28 11:20:22;;;;;;;;;;;8.50;99.90;;;;;;7341848;19;110161;-88
2024/01/28 11:22:51;;;;;;;;;;;8.60;99.90;;;;;;7338087;19;108553;-88
2024/01/28 11:25:24;;;;;;;;;;;8.70;99.90;;;;;;7337130;19;110582;-87
2024/01/28 11:27:56;;;;;;;;;;;8.80;99.90;;;;;;7338021;19;110621;-90
2024/01/28 11:30:24;;;;;;;;;;;8.90;99.90;;;;;;7337864;19;109965;-89
2024/01/28 11:32:56;;;;;;;;;;;8.90;99.90;;;;;;7337008;19;109433;-89
2024/01/28 11:35:24;;;;;;;;;;;8.90;99.90;;;;;;7339641;19;113647;-88
2024/01/28 11:37:52;;;;;;;;;;;9.00;99.90;;;;;;7336130;19;108788;-87
2024/01/28 11:40:21;;;;;;;;;;;9.10;99.90;;;;;;7336057;19;109235;-87
2024/01/28 11:42:51;;;;;;;;;;;9.10;99.90;;;;;;7341176;19;111558;-88
2024/01/28 11:45:19;;;;;;;;;;;9.20;99.90;;;;;;7337106;19;110116;-88
2024/01/28 11:47:46;;;;;;;;;;;9.30;99.90;;;;;;7336429;19;110127;-90
2024/01/28 11:50:14;;;;;;;;;;;9.30;99.90;;;;;;7338691;19;108613;-89
2024/01/28 11:52:42;;;;;;;;;;;9.50;99.90;;;;;;7336422;19;108785;-89
2024/01/28 11:55:11;;;;;;;;;;;9.60;99.90;;;;;;7335712;19;112715;-90
2024/01/28 11:57:39;;;;;;;;;;;9.70;99.90;;;;;;7337592;19;109234;-89
2024/01/28 12:00:08;;;;;;;;;;;9.80;99.90;;;;;;7336568;19;110442;-89
2024/01/28 12:02:36;;;;;;;;;;;10.00;99.90;;;;;;7337036;19;110609;-89
2024/01/28 12:05:06;;;;;;;;;;;10.10;99.90;;;;;;7340147;19;110017;-89
2024/01/28 12:07:37;;;;;;;;;;;10.20;99.90;;;;;;7339706;19;110368;-89
2024/01/28 12:10:10;;;;;;;;;;;10.30;99.90;;;;;;7336149;19;109397;-89
2024/01/28 12:12:41;;;;;;;;;;;10.40;99.90;;;;;;7334654;19;108953;-91
2024/01/28 12:15:09;;;;;;;;;;;10.50;99.90;;;;;;7336570;19;114463;-89
2024/01/28 12:17:37;;;;;;;;;;;10.70;99.90;;;;;;7336560;19;108921;-90
2024/01/28 12:20:05;;;;;;;;;;;10.80;99.90;;;;;;7333402;19;109777;-89
2024/01/28 12:22:39;;;;;;;;;;;10.90;99.90;;;;;;7333664;19;108889;-89
2024/01/28 12:25:08;;;;;;;;;;;11.00;99.90;;;;;;7335032;19;108786;-88
2024/01/28 12:27:36;;;;;;;;;;;11.10;99.90;;;;;;7340446;19;110063;-89
2024/01/28 12:30:03;;;;;;;;;;;11.30;99.90;;;;;;7332019;19;109935;-88
2024/01/28 12:32:30;;;;;;;;;;;11.40;99.90;;;;;;7334318;19;110670;-88
2024/01/28 12:35:03;;;;;;;;;;;11.60;99.90;;;;;;7333984;19;110285;-88
2024/01/28 12:37:30;;;;;;;;;;;11.70;99.90;;;;;;7331972;19;108482;-89
2024/01/28 12:40:05;;;;;;;;;;;11.80;99.90;;;;;;7333232;19;112708;-89
2024/01/28 12:42:34;;;;;;;;;;;11.90;99.90;;;;;;7334941;19;113707;-89
2024/01/28 12:45:01;;;;;;;;;;;12.00;99.90;;;;;;7336311;19;109497;-90
2024/01/28 12:47:29;;;;;;;;;;;12.10;99.90;;;;;;7341416;19;109518;-90
2024/01/28 12:49:56;;;;;;;;;;;12.20;99.90;;;;;;7337431;19;108819;-89
2024/01/28 12:52:24;;;;;;;;;;;12.20;99.90;;;;;;7335012;19;112739;-90
2024/01/28 12:54:51;;;;;;;;;;;12.30;99.90;;;;;;7333776;19;113012;-89
2024/01/28 12:57:18;;;;;;;;;;;12.30;99.90;;;;;;7335452;19;108574;-89
2024/01/28 12:59:45;;;;;;;;;;;12.40;99.90;;;;;;7330717;19;112624;-91
2024/01/28 13:02:13;;;;;;;;;;;12.50;99.90;;;;;;7335573;19;109894;-90
2024/01/28 13:04:40;;;;;;;;;;;12.50;99.90;;;;;;7333627;19;109415;-89
2024/01/28 13:07:08;;;;;;;;;;;12.60;99.90;;;;;;7333661;19;109591;-90
2024/01/28 13:09:35;;;;;;;;;;;12.60;99.90;;;;;;7334501;19;112757;-88
2024/01/28 13:12:02;;;;;;;;;;;12.70;99.90;;;;;;7332010;19;111794;-94
2024/01/28 13:14:30;;;;;;;;;;;12.70;99.90;;;;;;7330119;19;112840;-90
2024/01/28 13:16:57;;;;;;;;;;;12.80;99.90;;;;;;7331317;19;109745;-87
2024/01/28 13:19:25;;;;;;;;;;;12.90;99.90;;;;;;7334185;19;108996;-92
2024/01/28 13:21:52;;;;;;;;;;;12.90;99.90;;;;;;7332857;19;113078;-89
2024/01/28 13:24:19;;;;;;;;;;;13.00;99.90;;;;;;7334883;19;110796;-90
2024/01/28 13:26:50;;;;;;;;;;;13.10;99.90;;;;;;7333237;19;109086;-90
2024/01/28 13:29:18;;;;;;;;;;;13.10;99.90;;;;;;7332321;19;109163;-90
2024/01/28 13:31:45;;;;;;;;;;;13.20;99.90;;;;;;7335365;19;109136;-89
2024/01/28 13:34:13;;;;;;;;;;;13.20;99.90;;;;;;7330671;19;112747;-89
2024/01/28 13:36:40;;;;;;;;;;;13.30;99.90;;;;;;7335010;19;108941;-89
2024/01/28 13:39:11;;;;;;;;;;;13.30;99.90;;;;;;7331578;19;109976;-89
2024/01/28 13:41:38;;;;;;;;;;;13.30;99.90;;;;;;7335868;19;114065;-90
2024/01/28 13:44:06;;;;;;;;;;;13.30;99.90;;;;;;7345896;19;109342;-89
2024/01/28 13:46:33;;;;;;;;;;;13.30;99.90;;;;;;7338054;19;110154;-87
2024/01/28 13:49:05;;;;;;;;;;;13.30;99.90;;;;;;7340291;19;110662;-89
2024/01/28 13:51:32;;;;;;;;;;;13.40;99.90;;;;;;7338873;19;109085;-89
2024/01/28 13:53:59;;;;;;;;;;;13.40;99.90;;;;;;7344466;19;111043;-90
2024/01/28 13:56:27;;;;;;;;;;;13.50;99.90;;;;;;7337168;19;109631;-88
2024/01/28 13:58:55;;;;;;;;;;;13.60;99.90;;;;;;7341715;19;109087;-89
2024/01/28 14:01:23;;;;;;;;;;;13.70;99.90;;;;;;7340909;19;114118;-88
2024/01/28 14:03:50;;;;;;;;;;;13.80;99.90;;;;;;7338578;19;108880;-88
2024/01/28 14:06:18;;;;;;;;;;;13.80;99.90;;;;;;7340105;19;112265;-88
2024/01/28 14:08:45;;;;;;;;;;;13.90;99.90;;;;;;7340942;19;110352;-89
2024/01/28 14:11:12;;;;;;;;;;;14.00;99.90;;;;;;7341416;19;108829;-88
2024/01/28 14:13:39;;;;;;;;;;;14.00;99.90;;;;;;7337609;19;111477;-88
2024/01/28 14:16:07;;;;;;;;;;;14.00;99.90;;;;;;7346050;19;110545;-89
2024/01/28 14:18:34;;;;;;;;;;;14.10;99.90;;;;;;7341506;19;109093;-89
2024/01/28 14:21:02;;;;;;;;;;;14.10;99.90;;;;;;7338372;19;110255;-90
2024/01/28 14:23:30;;;;;;;;;;;14.10;99.90;;;;;;7338432;19;108913;-88
2024/01/28 14:25:57;;;;;;;;;;;14.10;99.90;;;;;;7339658;19;109996;-88
2024/01/28 14:28:24;;;;;;;;;;;14.20;99.90;;;;;;7339107;19;112866;-89
2024/01/28 14:30:51;;;;;;;;;;;14.20;99.90;;;;;;7340367;19;108934;-88
2024/01/28 14:33:18;;;;;;;;;;;14.20;99.90;;;;;;7343878;19;109694;-89
2024/01/28 14:35:46;;;;;;;;;;;14.00;99.90;;;;;;7336488;19;113301;-89
2024/01/28 14:38:14;;;;;;;;;;;14.00;99.90;;;;;;7347699;19;109490;-89
2024/01/28 14:40:49;;;;;;;;;;;13.90;99.90;;;;;;7336574;19;110223;-89
2024/01/28 14:43:16;;;;;;;;;;;13.90;99.90;;;;;;7339933;19;108430;-88
2024/01/28 14:45:44;;;;;;;;;;;13.90;99.90;;;;;;7339996;19;109524;-88
2024/01/28 14:48:13;;;;;;;;;;;13.90;99.90;;;;;;7337658;19;113704;-88
2024/01/28 14:50:43;;;;;;;;;;;14.00;99.90;;;;;;7337992;19;109938;-87
2024/01/28 14:53:11;;;;;;;;;;;14.00;99.90;;;;;;7342337;19;108631;-88
2024/01/28 14:55:38;;;;;;;;;;;14.00;99.90;;;;;;7338212;19;109366;-88
2024/01/28 14:58:06;;;;;;;;;;;14.10;99.90;;;;;;7344475;19;109932;-89
2024/01/28 15:00:33;;;;;;;;;;;14.10;99.90;;;;;;7338740;19;110307;-88
2024/01/28 15:03:00;;;;;;;;;;;14.20;99.90;;;;;;7339248;19;108802;-89
2024/01/28 15:05:28;;;;;;;;;;;14.10;99.90;;;;;;7339558;19;110961;-88
2024/01/28 15:07:57;;;;;;;;;;;14.20;99.90;;;;;;7335802;19;112235;-88
2024/01/28 15:10:25;;;;;;;;;;;14.10;99.90;;;;;;7339242;19;108749;-88
2024/01/28 15:12:52;;;;;;;;;;;14.10;99.90;;;;;;7334093;19;108996;-89
2024/01/28 15:15:19;;;;;;;;;;;14.10;99.90;;;;;;7338149;19;111437;-88
2024/01/28 15:17:49;;;;;;;;;;;14.00;99.90;;;;;;7336901;19;109665;-89
2024/01/28 15:20:20;;;;;;;;;;;14.00;99.90;;;;;;7343326;19;111932;-90
2024/01/28 15:22:48;;;;;;;;;;;14.00;99.90;;;;;;7338009;19;108711;-89
2024/01/28 15:25:16;;;;;;;;;;;14.10;99.90;;;;;;7338773;19;109663;-90
2024/01/28 15:27:44;;;;;;;;;;;14.00;99.90;;;;;;7338557;19;111920;-90
2024/01/28 15:30:11;;;;;;;;;;;14.00;99.90;;;;;;7342951;19;108550;-90
2024/01/28 15:32:40;;;;;;;;;;;13.90;99.90;;;;;;7346505;19;108839;-88
2024/01/28 15:35:08;;;;;;;;;;;13.90;99.90;;;;;;7348272;19;111785;-89
2024/01/28 15:37:35;;;;;;;;;;;13.80;99.90;;;;;;7348175;19;108468;-91
2024/01/28 15:40:04;;;;;;;;;;;13.70;99.90;;;;;;7347878;19;112022;-89
2024/01/28 15:42:31;;;;;;;;;;;13.60;99.90;;;;;;7352819;19;113556;-90
2024/01/28 15:44:58;;;;;;;;;;;13.60;99.90;;;;;;7348926;19;108436;-88
2024/01/28 15:47:25;;;;;;;;;;;13.50;99.90;;;;;;7346349;19;112560;-89
2024/01/28 15:49:52;;;;;;;;;;;13.50;99.90;;;;;;7347021;19;108793;-89
2024/01/28 15:52:20;;;;;;;;;;;13.40;99.90;;;;;;7373137;19;109459;-89
2024/01/28 15:54:47;;;;;;;;;;;13.30;99.90;;;;;;7376589;19;109475;-91
2024/01/28 15:57:15;;;;;;;;;;;13.20;99.90;;;;;;7376488;19;108674;-89
2024/01/28 15:59:45;;;;;;;;;;;13.10;99.90;;;;;;7373799;19;110530;-89
2024/01/28 16:02:26;;;;;;;;;;;13.00;99.90;;;;;;7371923;19;111861;-89
2024/01/28 16:04:53;;;;;;;;;;;12.80;99.90;;;;;;7373993;19;108165;-89
2024/01/28 16:07:20;;;;;;;;;;;12.60;99.90;;;;;;7367692;19;111930;-89
2024/01/28 16:09:52;;;;;;;;;;;12.50;99.90;;;;;;7368193;19;108670;-90
2024/01/28 16:12:21;;;;;;;;;;;12.40;99.90;;;;;;7371807;19;108432;-89
2024/01/28 16:14:49;;;;;;;;;;;12.20;99.90;;;;;;7369518;19;109574;-90
2024/01/28 16:17:18;;;;;;;;;;;12.10;99.90;;;;;;7371787;19;108095;-90
2024/01/28 16:19:48;;;;;;;;;;;12.00;99.90;;;;;;7370201;19;109578;-89
2024/01/28 16:22:21;;;;;;;;;;;11.90;99.90;;;;;;7365945;19;110597;-89
2024/01/28 16:25:06;;;;;;;;;;;11.80;99.90;;;;;;7364487;19;108461;-88
2024/01/28 16:27:42;;;;;;;;;;;11.70;99.90;;;;;;7370608;19;112009;-88
2024/01/28 16:30:41;;;;;;;;;;;11.60;99.90;;;;;;7333826;19;109577;-88
2024/01/28 16:33:08;;;;;;;;;;;11.50;99.90;;;;;;7332723;19;109103;-88
2024/01/28 16:35:36;;;;;;;;;;;11.40;99.90;;;;;;7332699;19;110015;-88
2024/01/28 16:38:03;;;;;;;;;;;11.20;99.90;;;;;;7332379;19;113187;-88
2024/01/28 16:40:30;;;;;;;;;;;11.10;99.90;;;;;;7335945;19;111802;-88
2024/01/28 16:43:04;;;;;;;;;;;11.00;99.90;;;;;;7328297;19;113174;-88
2024/01/28 16:45:31;;;;;;;;;;;10.80;99.90;;;;;;7334270;19;108386;-88
2024/01/28 16:47:59;;;;;;;;;;;10.70;99.90;;;;;;7330699;19;109472;-87
2024/01/28 16:50:26;;;;;;;;;;;10.50;99.90;;;;;;7335312;19;109939;-89
2024/01/28 16:52:53;;;;;;;;;;;10.50;99.90;;;;;;7331017;19;110294;-88
2024/01/28 16:55:22;;;;;;;;;;;10.30;99.90;;;;;;7329895;19;112641;-87
2024/01/28 16:57:49;;;;;;;;;;;10.20;99.90;;;;;;7330768;19;109205;-87
2024/01/28 17:00:17;;;;;;;;;;;10.10;99.90;;;;;;7327036;19;113136;-88
2024/01/28 17:02:44;;;;;;;;;;;10.00;99.90;;;;;;7329629;19;114045;-88